createdAt,value
2023-07-01T00:01:43.617Z,20.56
2023-07-01T00:04:45.294Z,20.54
2023-07-01T00:07:47.900Z,20.54
2023-07-01T00:10:49.783Z,20.53
2023-07-01T00:13:51.641Z,20.52
2023-07-01T00:16:55.430Z,20.51
2023-07-01T00:19:57.011Z,20.51
2023-07-01T00:22:58.597Z,20.49
2023-07-01T00:26:00.562Z,20.48
2023-07-01T00:29:02.155Z,20.48
2023-07-01T00:32:03.912Z,20.47
2023-07-01T00:35:05.772Z,20.46
2023-07-01T00:38:07.422Z,20.45
2023-07-01T00:41:08.969Z,20.46
2023-07-01T00:44:10.602Z,20.45
2023-07-01T00:47:12.896Z,20.44
2023-07-01T00:50:14.448Z,20.43
2023-07-01T00:53:16.545Z,20.43
2023-07-01T00:56:18.148Z,20.41
2023-07-01T00:59:19.739Z,20.41
2023-07-01T01:02:23.834Z,20.40
2023-07-01T01:05:38.555Z,20.41
2023-07-01T01:08:47.757Z,20.40
2023-07-01T01:11:53.721Z,20.40
2023-07-01T01:14:55.603Z,20.39
2023-07-01T01:18:03.664Z,20.38
2023-07-01T01:21:06.157Z,20.37
2023-07-01T01:24:09.196Z,20.37
2023-07-01T01:27:13.513Z,20.35
2023-07-01T01:30:15.258Z,20.36
2023-07-01T01:33:16.851Z,20.35
2023-07-01T01:36:22.084Z,20.34
2023-07-01T01:39:30.318Z,20.32
2023-07-01T01:42:34.742Z,20.31
2023-07-01T01:45:37.277Z,20.30
2023-07-01T01:48:38.920Z,20.29
2023-07-01T01:51:41.425Z,20.29
2023-07-01T01:54:46.752Z,20.27
2023-07-01T01:57:49.838Z,20.27
2023-07-01T02:00:51.454Z,20.26
2023-07-01T02:03:53.219Z,20.25
2023-07-01T02:06:54.862Z,20.24
2023-07-01T02:09:56.525Z,20.22
2023-07-01T02:12:58.324Z,20.20
2023-07-01T02:16:00.224Z,20.18
2023-07-01T02:19:01.777Z,20.16
2023-07-01T02:22:03.457Z,20.14
2023-07-01T02:25:05.458Z,20.12
2023-07-01T02:28:07.076Z,20.11
2023-07-01T02:31:08.730Z,20.10
2023-07-01T02:34:10.348Z,20.08
2023-07-01T02:37:11.903Z,20.07
2023-07-01T02:40:13.535Z,20.06
2023-07-01T02:43:15.155Z,20.04
2023-07-01T02:46:16.764Z,20.03
2023-07-01T02:49:18.470Z,20.01
2023-07-01T02:52:20.248Z,20.01
2023-07-01T02:55:21.833Z,19.99
2023-07-01T02:58:23.732Z,19.98
2023-07-01T03:01:25.393Z,19.97
2023-07-01T03:04:27.050Z,19.96
2023-07-01T03:07:28.706Z,19.95
2023-07-01T03:10:30.398Z,19.94
2023-07-01T03:13:32.021Z,19.92
2023-07-01T03:16:33.780Z,19.92
2023-07-01T03:19:35.458Z,19.92
2023-07-01T03:22:37.167Z,19.92
2023-07-01T03:25:40.079Z,19.92
2023-07-01T03:28:41.667Z,19.92
2023-07-01T03:31:43.344Z,19.92
2023-07-01T03:34:44.973Z,19.92
2023-07-01T03:37:46.751Z,19.92
2023-07-01T03:40:48.702Z,19.92
2023-07-01T03:43:50.620Z,19.91
2023-07-01T03:46:52.308Z,19.91
2023-07-01T03:49:53.849Z,19.91
2023-07-01T03:52:55.348Z,19.92
2023-07-01T03:55:57.127Z,19.93
2023-07-01T03:58:58.683Z,19.93
2023-07-01T04:02:01.285Z,19.94
2023-07-01T04:05:10.429Z,19.94
2023-07-01T04:08:12.040Z,19.94
2023-07-01T04:11:13.580Z,19.93
2023-07-01T04:14:15.759Z,19.94
2023-07-01T04:17:17.307Z,19.94
2023-07-01T04:20:21.583Z,19.94
2023-07-01T04:23:23.144Z,19.96
2023-07-01T04:26:27.118Z,19.96
2023-07-01T04:29:28.700Z,19.98
2023-07-01T04:32:30.341Z,19.99
2023-07-01T04:35:32.018Z,20.00
2023-07-01T04:38:33.677Z,20.02
2023-07-01T04:41:35.246Z,20.04
2023-07-01T04:44:36.886Z,20.06
2023-07-01T04:47:39.016Z,20.07
2023-07-01T04:50:40.588Z,20.08
2023-07-01T04:53:42.159Z,20.11
2023-07-01T04:56:43.708Z,20.13
2023-07-01T04:59:45.309Z,20.15
2023-07-01T05:02:47.111Z,20.17
2023-07-01T05:05:48.841Z,20.18
2023-07-01T05:08:50.496Z,20.20
2023-07-01T05:11:52.066Z,20.21
2023-07-01T05:14:54.359Z,20.23
2023-07-01T05:17:56.060Z,20.25
2023-07-01T05:20:57.707Z,20.27
2023-07-01T05:23:59.399Z,20.28
2023-07-01T05:27:00.931Z,20.29
2023-07-01T05:30:02.584Z,20.30
2023-07-01T05:33:04.875Z,20.31
2023-07-01T05:36:06.603Z,20.32
2023-07-01T05:39:08.473Z,20.34
2023-07-01T05:42:10.295Z,20.34
2023-07-01T05:45:12.180Z,20.35
2023-07-01T05:48:13.848Z,20.35
2023-07-01T05:51:15.442Z,20.36
2023-07-01T05:54:21.378Z,20.36
2023-07-01T05:57:23.246Z,20.37
2023-07-01T06:00:24.884Z,20.39
2023-07-01T06:03:26.499Z,20.41
2023-07-01T06:06:28.149Z,20.43
2023-07-01T06:09:29.845Z,20.45
2023-07-01T06:12:31.494Z,20.46
2023-07-01T06:15:33.060Z,20.47
2023-07-01T06:18:34.665Z,20.46
2023-07-01T06:21:36.174Z,20.46
2023-07-01T06:24:37.772Z,20.44
2023-07-01T06:27:39.450Z,20.43
2023-07-01T06:30:41.108Z,20.41
2023-07-01T06:33:43.985Z,20.40
2023-07-01T06:36:45.629Z,20.38
2023-07-01T06:39:47.264Z,20.37
2023-07-01T06:42:48.933Z,20.36
2023-07-01T06:45:50.530Z,20.35
2023-07-01T06:48:52.072Z,20.34
2023-07-01T06:51:53.596Z,20.33
2023-07-01T06:54:55.183Z,20.31
2023-07-01T06:57:57.053Z,20.30
2023-07-01T07:00:58.748Z,20.29
2023-07-01T07:04:00.444Z,20.28
2023-07-01T07:07:02.095Z,20.28
2023-07-01T07:10:04.051Z,20.27
2023-07-01T07:13:05.701Z,20.28
2023-07-01T07:16:07.518Z,20.29
2023-07-01T07:19:09.256Z,20.29
2023-07-01T07:22:10.806Z,20.29
2023-07-01T07:25:18.798Z,20.28
2023-07-01T07:28:20.646Z,20.27
2023-07-01T07:31:22.204Z,20.27
2023-07-01T07:34:24.428Z,20.28
2023-07-01T07:37:26.049Z,20.29
2023-07-01T07:40:27.683Z,20.31
2023-07-01T07:43:30.244Z,20.33
2023-07-01T07:46:33.947Z,20.36
2023-07-01T07:49:35.564Z,20.40
2023-07-01T07:52:37.352Z,20.43
2023-07-01T07:55:39.084Z,20.46
2023-07-01T07:58:41.458Z,20.50
2023-07-01T08:01:43.138Z,20.53
2023-07-01T08:04:44.921Z,20.55
2023-07-01T08:07:47.446Z,20.59
2023-07-01T08:10:49.417Z,20.61
2023-07-01T08:13:51.204Z,20.62
2023-07-01T08:16:56.409Z,20.65
2023-07-01T08:19:59.286Z,20.67
2023-07-01T08:23:00.975Z,20.69
2023-07-01T08:26:03.568Z,20.69
2023-07-01T08:29:06.923Z,20.69
2023-07-01T08:32:08.573Z,20.68
2023-07-01T08:35:10.200Z,20.68
2023-07-01T08:38:11.757Z,20.68
2023-07-01T08:41:16.550Z,20.68
2023-07-01T08:44:19.386Z,20.69
2023-07-01T08:47:21.704Z,20.71
2023-07-01T08:50:23.675Z,20.73
2023-07-01T08:53:25.811Z,20.73
2023-07-01T08:56:27.662Z,20.72
2023-07-01T08:59:29.391Z,20.71
2023-07-01T09:02:31.755Z,20.70
2023-07-01T09:05:33.430Z,20.69
2023-07-01T09:08:41.021Z,20.68
2023-07-01T09:11:42.662Z,20.67
2023-07-01T09:14:56.683Z,20.68
2023-07-01T09:17:58.345Z,20.69
2023-07-01T09:21:00.147Z,20.71
2023-07-01T09:24:02.509Z,20.74
2023-07-01T09:27:04.184Z,20.77
2023-07-01T09:30:20.631Z,20.79
2023-07-01T09:33:22.522Z,20.81
2023-07-01T09:36:25.287Z,20.83
2023-07-01T09:39:33.435Z,20.84
2023-07-01T09:42:49.776Z,20.86
2023-07-01T09:45:55.378Z,20.86
2023-07-01T09:48:57.098Z,20.84
2023-07-01T09:52:00.885Z,20.83
2023-07-01T09:55:03.355Z,20.81
2023-07-01T09:58:05.220Z,20.78
2023-07-01T10:01:08.588Z,20.77
2023-07-01T10:04:10.850Z,20.76
2023-07-01T10:07:12.701Z,20.75
2023-07-01T10:10:16.642Z,20.75
2023-07-01T10:13:18.454Z,20.75
2023-07-01T10:16:20.375Z,20.75
2023-07-01T10:19:26.152Z,20.74
2023-07-01T10:22:32.056Z,20.75
2023-07-01T10:25:35.007Z,20.75
2023-07-01T10:28:36.832Z,20.76
2023-07-01T10:31:38.894Z,20.77
2023-07-01T10:34:52.879Z,20.79
2023-07-01T10:38:13.456Z,20.82
2023-07-01T10:41:35.226Z,20.87
2023-07-01T10:44:37.030Z,20.92
2023-07-01T10:47:38.861Z,20.96
2023-07-01T10:50:58.999Z,20.99
2023-07-01T10:54:05.038Z,21.03
2023-07-01T10:57:10.495Z,21.07
2023-07-01T11:00:35.616Z,21.12
2023-07-01T11:03:37.966Z,21.20
2023-07-01T11:07:00.369Z,21.28
2023-07-01T11:10:04.806Z,21.37
2023-07-01T11:13:06.657Z,21.49
2023-07-01T11:16:10.520Z,21.63
2023-07-01T11:19:15.569Z,21.80
2023-07-01T11:22:17.528Z,21.99
2023-07-01T11:25:19.318Z,22.13
2023-07-01T11:28:34.774Z,22.24
2023-07-01T11:31:40.642Z,22.40
2023-07-01T11:34:43.622Z,22.65
2023-07-01T11:37:47.969Z,23.00
2023-07-01T11:40:50.436Z,23.34
2023-07-01T11:43:53.473Z,23.60
2023-07-01T11:46:55.732Z,23.85
2023-07-01T11:50:03.654Z,24.10
2023-07-01T11:53:06.194Z,24.34
2023-07-01T11:56:16.682Z,24.58
2023-07-01T11:59:31.072Z,24.79
2023-07-01T12:02:36.457Z,24.93
2023-07-01T12:05:38.578Z,25.09
2023-07-01T12:09:07.562Z,25.28
2023-07-01T12:12:35.316Z,25.51
2023-07-01T12:15:53.974Z,25.71
2023-07-01T12:19:04.347Z,25.85
2023-07-01T12:22:07.002Z,25.84
2023-07-01T12:25:08.909Z,25.81
2023-07-01T12:28:11.371Z,25.68
2023-07-01T12:31:13.445Z,25.50
2023-07-01T12:34:16.196Z,25.34
2023-07-01T12:37:18.082Z,25.16
2023-07-01T12:40:20.161Z,24.97
2023-07-01T12:43:23.093Z,24.79
2023-07-01T12:46:24.898Z,24.62
2023-07-01T12:49:27.735Z,24.46
2023-07-01T12:52:34.017Z,24.31
2023-07-01T12:55:35.779Z,24.16
2023-07-01T12:58:41.544Z,24.04
2023-07-01T13:01:44.144Z,24.00
2023-07-01T13:04:46.029Z,24.03
2023-07-01T13:07:49.183Z,24.06
2023-07-01T13:10:51.211Z,24.13
2023-07-01T13:13:53.212Z,24.26
2023-07-01T13:16:55.446Z,24.42
2023-07-01T13:19:57.999Z,24.57
2023-07-01T13:23:01.559Z,24.68
2023-07-01T13:26:03.428Z,24.71
2023-07-01T13:29:09.504Z,24.72
2023-07-01T13:32:11.349Z,24.72
2023-07-01T13:35:18.644Z,24.67
2023-07-01T13:38:20.716Z,24.65
2023-07-01T13:41:23.828Z,24.60
2023-07-01T13:44:26.356Z,24.51
2023-07-01T13:47:37.598Z,24.43
2023-07-01T13:50:39.714Z,24.41
2023-07-01T13:53:41.710Z,24.44
2023-07-01T13:56:44.134Z,24.47
2023-07-01T13:59:46.183Z,24.51
2023-07-01T14:02:48.705Z,24.56
2023-07-01T14:05:54.117Z,24.67
2023-07-01T14:08:57.112Z,24.67
2023-07-01T14:11:59.442Z,24.61
2023-07-01T14:15:05.086Z,24.54
2023-07-01T14:18:27.362Z,24.48
2023-07-01T14:21:30.740Z,24.44
2023-07-01T14:24:34.277Z,24.50
2023-07-01T14:27:36.220Z,24.59
2023-07-01T14:30:46.862Z,24.71
2023-07-01T14:33:55.931Z,24.83
2023-07-01T14:36:58.940Z,24.91
2023-07-01T14:40:00.914Z,24.98
2023-07-01T14:43:06.527Z,25.03
2023-07-01T14:46:08.384Z,25.05
2023-07-01T14:49:10.312Z,25.08
2023-07-01T14:52:12.768Z,25.11
2023-07-01T14:55:15.398Z,25.11
2023-07-01T14:58:18.274Z,25.06
2023-07-01T15:01:21.206Z,24.97
2023-07-01T15:04:23.260Z,24.87
2023-07-01T15:07:25.162Z,24.74
2023-07-01T15:10:27.026Z,24.63
2023-07-01T15:13:32.828Z,24.55
2023-07-01T15:16:35.045Z,24.51
2023-07-01T15:19:36.884Z,24.47
2023-07-01T15:22:39.469Z,24.40
2023-07-01T15:25:44.329Z,24.34
2023-07-01T15:28:46.902Z,24.28
2023-07-01T15:31:48.775Z,24.24
2023-07-01T15:34:51.101Z,24.20
2023-07-01T15:37:53.010Z,24.15
2023-07-01T15:40:55.088Z,24.12
2023-07-01T15:43:59.896Z,24.07
2023-07-01T15:47:04.536Z,24.02
2023-07-01T15:50:06.779Z,23.97
2023-07-01T15:53:08.511Z,23.94
2023-07-01T15:56:10.481Z,23.92
2023-07-01T15:59:12.666Z,23.90
2023-07-01T16:02:14.807Z,23.87
2023-07-01T16:05:17.127Z,23.85
2023-07-01T16:08:19.400Z,23.82
2023-07-01T16:11:31.082Z,23.78
2023-07-01T16:14:33.213Z,23.74
2023-07-01T16:17:38.697Z,23.72
2023-07-01T16:20:40.555Z,23.68
2023-07-01T16:23:49.366Z,23.64
2023-07-01T16:26:51.196Z,23.59
2023-07-01T16:30:00.318Z,23.55
2023-07-01T16:33:02.579Z,23.52
2023-07-01T16:36:04.357Z,23.48
2023-07-01T16:39:12.890Z,23.44
2023-07-01T16:42:16.561Z,23.40
2023-07-01T16:45:32.036Z,23.37
2023-07-01T16:48:55.008Z,23.33
2023-07-01T16:51:57.016Z,23.29
2023-07-01T16:54:59.689Z,23.27
2023-07-01T16:58:01.960Z,23.24
2023-07-01T17:01:04.803Z,23.21
2023-07-01T17:04:07.047Z,23.18
2023-07-01T17:07:13.947Z,23.16
2023-07-01T17:10:34.478Z,23.12
2023-07-01T17:13:39.596Z,23.09
2023-07-01T17:16:41.724Z,23.06
2023-07-01T17:19:43.719Z,23.03
2023-07-01T17:22:45.610Z,23.00
2023-07-01T17:25:48.436Z,22.97
2023-07-01T17:28:51.567Z,22.94
2023-07-01T17:31:53.724Z,22.91
2023-07-01T17:35:05.629Z,22.88
2023-07-01T17:38:07.689Z,22.84
2023-07-01T17:41:09.546Z,22.80
2023-07-01T17:44:11.649Z,22.76
2023-07-01T17:47:13.495Z,22.72
2023-07-01T17:50:21.347Z,22.69
2023-07-01T17:53:23.732Z,22.65
2023-07-01T17:56:25.625Z,22.62
2023-07-01T17:59:27.384Z,22.57
2023-07-01T18:02:29.467Z,22.53
2023-07-01T18:05:31.995Z,22.48
2023-07-01T18:08:33.959Z,22.44
2023-07-01T18:11:35.853Z,22.39
2023-07-01T18:14:37.720Z,22.35
2023-07-01T18:17:40.986Z,22.31
2023-07-01T18:20:54.021Z,22.28
2023-07-01T18:23:57.927Z,22.22
2023-07-01T18:27:03.780Z,22.19
2023-07-01T18:30:14.745Z,22.14
2023-07-01T18:33:17.408Z,22.10
2023-07-01T18:36:19.747Z,22.07
2023-07-01T18:39:21.998Z,22.03
2023-07-01T18:42:23.805Z,22.00
2023-07-01T18:45:25.666Z,21.97
2023-07-01T18:48:27.548Z,21.94
2023-07-01T18:51:30.095Z,21.92
2023-07-01T18:54:33.522Z,21.91
2023-07-01T18:57:36.745Z,21.88
2023-07-01T19:00:44.084Z,21.85
2023-07-01T19:03:45.933Z,21.83
2023-07-01T19:06:47.781Z,21.81
2023-07-01T19:09:49.561Z,21.78
2023-07-01T19:12:51.291Z,21.76
2023-07-01T19:15:53.092Z,21.75
2023-07-01T19:18:54.903Z,21.72
2023-07-01T19:21:56.735Z,21.70
2023-07-01T19:24:58.579Z,21.67
2023-07-01T19:28:00.600Z,21.64
2023-07-01T19:31:02.714Z,21.62
2023-07-01T19:34:04.491Z,21.59
2023-07-01T19:37:06.796Z,21.56
2023-07-01T19:40:08.873Z,21.54
2023-07-01T19:43:10.764Z,21.53
2023-07-01T19:46:12.590Z,21.50
2023-07-01T19:49:15.957Z,21.48
2023-07-01T19:52:17.926Z,21.47
2023-07-01T19:55:21.749Z,21.45
2023-07-01T19:58:25.350Z,21.44
2023-07-01T20:01:27.105Z,21.43
2023-07-01T20:04:28.968Z,21.41
2023-07-01T20:07:32.775Z,21.41
2023-07-01T20:10:34.699Z,21.40
2023-07-01T20:13:36.776Z,21.39
2023-07-01T20:16:38.766Z,21.38
2023-07-01T20:19:40.471Z,21.37
2023-07-01T20:22:42.092Z,21.36
2023-07-01T20:25:43.759Z,21.35
2023-07-01T20:28:45.545Z,21.34
2023-07-01T20:31:47.215Z,21.31
2023-07-01T20:34:49.522Z,21.30
2023-07-01T20:37:52.041Z,21.27
2023-07-01T20:40:53.704Z,21.24
2023-07-01T20:43:55.397Z,21.22
2023-07-01T20:46:57.029Z,21.19
2023-07-01T20:49:58.862Z,21.16
2023-07-01T20:53:00.473Z,21.13
2023-07-01T20:56:02.123Z,21.10
2023-07-01T20:59:03.949Z,21.07
2023-07-01T21:02:05.674Z,21.04
2023-07-01T21:05:07.551Z,21.01
2023-07-01T21:08:09.093Z,20.99
2023-07-01T21:11:10.890Z,20.97
2023-07-01T21:14:13.457Z,20.93
2023-07-01T21:17:16.668Z,20.91
2023-07-01T21:20:18.909Z,20.88
2023-07-01T21:23:20.488Z,20.85
2023-07-01T21:26:23.242Z,20.82
2023-07-01T21:29:25.414Z,20.79
2023-07-01T21:32:27.087Z,20.74
2023-07-01T21:35:29.857Z,20.70
2023-07-01T21:38:31.472Z,20.66
2023-07-01T21:41:33.085Z,20.63
2023-07-01T21:44:35.651Z,20.60
2023-07-01T21:47:41.612Z,20.56
2023-07-01T21:50:45.170Z,20.53
2023-07-01T21:53:49.454Z,20.49
2023-07-01T21:56:51.116Z,20.46
2023-07-01T21:59:52.781Z,20.41
2023-07-01T22:02:55.259Z,20.37
2023-07-01T22:05:57.114Z,20.33
2023-07-01T22:08:58.659Z,20.29
2023-07-01T22:12:00.490Z,20.24
2023-07-01T22:15:02.026Z,20.21
2023-07-01T22:18:03.691Z,20.18
2023-07-01T22:21:05.979Z,20.14
2023-07-01T22:24:07.651Z,20.11
2023-07-01T22:27:09.516Z,20.08
2023-07-01T22:30:11.609Z,20.04
2023-07-01T22:33:13.211Z,20.01
2023-07-01T22:36:14.876Z,19.97
2023-07-01T22:39:16.446Z,19.94
2023-07-01T22:42:17.957Z,19.89
2023-07-01T22:45:19.586Z,19.85
2023-07-01T22:48:22.148Z,19.81
2023-07-01T22:51:23.708Z,19.76
2023-07-01T22:54:25.241Z,19.73
2023-07-01T22:57:26.845Z,19.70
2023-07-01T23:00:28.488Z,19.66
2023-07-01T23:03:30.285Z,19.64
2023-07-01T23:06:31.933Z,19.61
2023-07-01T23:09:33.556Z,19.58
2023-07-01T23:12:35.529Z,19.56
2023-07-01T23:15:38.229Z,19.53
2023-07-01T23:18:39.757Z,19.51
2023-07-01T23:21:41.337Z,19.48
2023-07-01T23:24:46.313Z,19.45
2023-07-01T23:27:48.201Z,19.42
2023-07-01T23:30:51.535Z,19.38
2023-07-01T23:33:53.381Z,19.36
2023-07-01T23:36:55.219Z,19.33
2023-07-01T23:39:56.741Z,19.31
2023-07-01T23:42:58.315Z,19.28
2023-07-01T23:46:00.465Z,19.25
2023-07-01T23:49:02.771Z,19.24
2023-07-01T23:52:04.557Z,19.23
2023-07-01T23:55:06.559Z,19.22
2023-07-01T23:58:08.132Z,19.21
